sensor_id;sensor_type;location;lat;lon;timestamp;P1;durP1;ratioP1;P2;durP2;ratioP2
68744;SDS011;73143;45.456;11.064;2023-11-21T00:01:05;36.90;;;22.90;;
68744;SDS011;73143;45.456;11.064;2023-11-21T00:03:43;35.10;;;22.20;;
68744;SDS011;73143;45.456;11.064;2023-11-21T00:06:20;34.70;;;21.10;;
68744;SDS011;73143;45.456;11.064;2023-11-21T00:08:57;46.40;;;26.70;;
68744;SDS011;73143;45.456;11.064;2023-11-21T00:11:34;47.70;;;26.80;;
68744;SDS011;73143;45.456;11.064;2023-11-21T00:14:11;46.40;;;25.90;;
68744;SDS011;73143;45.456;11.064;2023-11-21T00:16:49;48.10;;;25.90;;
68744;SDS011;73143;45.456;11.064;2023-11-21T00:19:26;42.70;;;24.60;;
68744;SDS011;73143;45.456;11.064;2023-11-21T00:22:04;38.20;;;25.20;;
68744;SDS011;73143;45.456;11.064;2023-11-21T00:24:42;40.40;;;24.50;;
68744;SDS011;73143;45.456;11.064;2023-11-21T00:27:19;38.30;;;22.70;;
68744;SDS011;73143;45.456;11.064;2023-11-21T00:29:55;39.40;;;23.30;;
68744;SDS011;73143;45.456;11.064;2023-11-21T00:32:32;34.20;;;23.20;;
68744;SDS011;73143;45.456;11.064;2023-11-21T00:35:11;36.50;;;23.10;;
68744;SDS011;73143;45.456;11.064;2023-11-21T00:37:49;37.10;;;23.70;;
68744;SDS011;73143;45.456;11.064;2023-11-21T00:40:26;36.90;;;23.30;;
68744;SDS011;73143;45.456;11.064;2023-11-21T00:43:04;34.40;;;21.80;;
68744;SDS011;73143;45.456;11.064;2023-11-21T00:45:41;32.10;;;21.80;;
68744;SDS011;73143;45.456;11.064;2023-11-21T00:48:20;36.30;;;23.30;;
68744;SDS011;73143;45.456;11.064;2023-11-21T00:50:57;33.50;;;22.60;;
68744;SDS011;73143;45.456;11.064;2023-11-21T00:53:33;36.50;;;23.30;;
68744;SDS011;73143;45.456;11.064;2023-11-21T00:56:11;35.40;;;22.70;;
68744;SDS011;73143;45.456;11.064;2023-11-21T00:58:49;35.80;;;22.40;;
68744;SDS011;73143;45.456;11.064;2023-11-21T01:01:25;34.50;;;22.30;;
68744;SDS011;73143;45.456;11.064;2023-11-21T01:04:03;34.30;;;22.00;;
68744;SDS011;73143;45.456;11.064;2023-11-21T01:06:42;34.10;;;23.20;;
68744;SDS011;73143;45.456;11.064;2023-11-21T01:09:18;35.40;;;22.00;;
68744;SDS011;73143;45.456;11.064;2023-11-21T01:11:55;32.60;;;22.40;;
68744;SDS011;73143;45.456;11.064;2023-11-21T01:14:34;34.30;;;22.90;;
68744;SDS011;73143;45.456;11.064;2023-11-21T01:17:11;32.80;;;21.80;;
68744;SDS011;73143;45.456;11.064;2023-11-21T01:19:48;32.70;;;21.10;;
68744;SDS011;73143;45.456;11.064;2023-11-21T01:22:24;32.80;;;21.20;;
68744;SDS011;73143;45.456;11.064;2023-11-21T01:25:00;31.80;;;21.10;;
68744;SDS011;73143;45.456;11.064;2023-11-21T01:27:38;33.80;;;22.50;;
68744;SDS011;73143;45.456;11.064;2023-11-21T01:30:16;34.80;;;22.80;;
68744;SDS011;73143;45.456;11.064;2023-11-21T01:32:54;34.80;;;22.20;;
68744;SDS011;73143;45.456;11.064;2023-11-21T01:35:30;35.80;;;22.20;;
68744;SDS011;73143;45.456;11.064;2023-11-21T01:38:07;35.90;;;22.20;;
68744;SDS011;73143;45.456;11.064;2023-11-21T01:40:44;37.30;;;23.10;;
68744;SDS011;73143;45.456;11.064;2023-11-21T01:43:22;45.00;;;26.60;;
68744;SDS011;73143;45.456;11.064;2023-11-21T01:45:58;37.50;;;24.20;;
68744;SDS011;73143;45.456;11.064;2023-11-21T01:48:37;37.00;;;23.80;;
68744;SDS011;73143;45.456;11.064;2023-11-21T01:51:15;36.40;;;23.80;;
68744;SDS011;73143;45.456;11.064;2023-11-21T01:53:52;37.50;;;24.50;;
68744;SDS011;73143;45.456;11.064;2023-11-21T01:56:29;34.30;;;24.00;;
68744;SDS011;73143;45.456;11.064;2023-11-21T01:59:06;37.30;;;24.00;;
68744;SDS011;73143;45.456;11.064;2023-11-21T02:01:44;38.80;;;25.30;;
68744;SDS011;73143;45.456;11.064;2023-11-21T02:04:22;38.60;;;24.40;;
68744;SDS011;73143;45.456;11.064;2023-11-21T02:07:00;38.70;;;23.30;;
68744;SDS011;73143;45.456;11.064;2023-11-21T02:09:38;35.50;;;23.20;;
68744;SDS011;73143;45.456;11.064;2023-11-21T02:12:16;39.30;;;23.80;;
68744;SDS011;73143;45.456;11.064;2023-11-21T02:14:53;39.70;;;25.20;;
68744;SDS011;73143;45.456;11.064;2023-11-21T02:17:32;36.80;;;23.20;;
68744;SDS011;73143;45.456;11.064;2023-11-21T02:20:15;34.90;;;22.20;;
68744;SDS011;73143;45.456;11.064;2023-11-21T02:22:53;34.00;;;22.10;;
68744;SDS011;73143;45.456;11.064;2023-11-21T02:25:33;36.00;;;21.60;;
68744;SDS011;73143;45.456;11.064;2023-11-21T02:28:10;31.00;;;21.20;;
68744;SDS011;73143;45.456;11.064;2023-11-21T02:30:47;33.30;;;22.00;;
68744;SDS011;73143;45.456;11.064;2023-11-21T02:33:26;34.50;;;21.90;;
68744;SDS011;73143;45.456;11.064;2023-11-21T02:36:06;31.90;;;21.70;;
68744;SDS011;73143;45.456;11.064;2023-11-21T02:38:46;30.40;;;20.80;;
68744;SDS011;73143;45.456;11.064;2023-11-21T02:41:23;32.50;;;20.20;;
68744;SDS011;73143;45.456;11.064;2023-11-21T02:44:00;33.90;;;20.80;;
68744;SDS011;73143;45.456;11.064;2023-11-21T02:46:37;33.60;;;21.70;;
68744;SDS011;73143;45.456;11.064;2023-11-21T02:49:14;30.70;;;21.20;;
68744;SDS011;73143;45.456;11.064;2023-11-21T02:51:52;33.70;;;21.20;;
68744;SDS011;73143;45.456;11.064;2023-11-21T02:54:30;33.90;;;22.20;;
68744;SDS011;73143;45.456;11.064;2023-11-21T02:57:09;33.10;;;22.00;;
68744;SDS011;73143;45.456;11.064;2023-11-21T02:59:46;32.40;;;20.70;;
68744;SDS011;73143;45.456;11.064;2023-11-21T03:02:23;31.70;;;21.50;;
68744;SDS011;73143;45.456;11.064;2023-11-21T03:04:59;39.80;;;22.70;;
68744;SDS011;73143;45.456;11.064;2023-11-21T03:07:38;33.50;;;20.50;;
68744;SDS011;73143;45.456;11.064;2023-11-21T03:10:15;36.40;;;23.30;;
68744;SDS011;73143;45.456;11.064;2023-11-21T03:12:53;39.10;;;23.80;;
68744;SDS011;73143;45.456;11.064;2023-11-21T03:15:31;39.00;;;22.90;;
68744;SDS011;73143;45.456;11.064;2023-11-21T03:18:08;39.60;;;25.20;;
68744;SDS011;73143;45.456;11.064;2023-11-21T03:20:46;34.50;;;22.70;;
68744;SDS011;73143;45.456;11.064;2023-11-21T03:23:23;31.80;;;21.70;;
68744;SDS011;73143;45.456;11.064;2023-11-21T03:25:59;38.60;;;22.60;;
68744;SDS011;73143;45.456;11.064;2023-11-21T03:28:36;34.10;;;22.70;;
68744;SDS011;73143;45.456;11.064;2023-11-21T03:31:12;38.90;;;22.80;;
68744;SDS011;73143;45.456;11.064;2023-11-21T03:33:51;36.70;;;22.30;;
68744;SDS011;73143;45.456;11.064;2023-11-21T03:36:28;33.20;;;22.00;;
68744;SDS011;73143;45.456;11.064;2023-11-21T03:39:05;35.00;;;21.40;;
68744;SDS011;73143;45.456;11.064;2023-11-21T03:41:42;33.30;;;22.70;;
68744;SDS011;73143;45.456;11.064;2023-11-21T03:44:20;33.50;;;20.90;;
68744;SDS011;73143;45.456;11.064;2023-11-21T03:46:57;33.20;;;21.70;;
68744;SDS011;73143;45.456;11.064;2023-11-21T03:49:34;34.40;;;22.00;;
68744;SDS011;73143;45.456;11.064;2023-11-21T03:52:10;34.30;;;22.00;;
68744;SDS011;73143;45.456;11.064;2023-11-21T03:54:48;29.20;;;20.80;;
68744;SDS011;73143;45.456;11.064;2023-11-21T03:57:25;34.80;;;22.40;;
68744;SDS011;73143;45.456;11.064;2023-11-21T04:00:08;33.80;;;22.40;;
68744;SDS011;73143;45.456;11.064;2023-11-21T04:02:49;36.20;;;22.70;;
68744;SDS011;73143;45.456;11.064;2023-11-21T04:05:26;35.90;;;23.00;;
68744;SDS011;73143;45.456;11.064;2023-11-21T04:08:04;36.00;;;23.00;;
68744;SDS011;73143;45.456;11.064;2023-11-21T04:10:41;31.60;;;21.10;;
68744;SDS011;73143;45.456;11.064;2023-11-21T04:13:17;35.50;;;23.40;;
68744;SDS011;73143;45.456;11.064;2023-11-21T04:15:54;35.90;;;23.20;;
68744;SDS011;73143;45.456;11.064;2023-11-21T04:18:30;37.80;;;23.50;;
68744;SDS011;73143;45.456;11.064;2023-11-21T04:21:07;34.90;;;23.40;;
68744;SDS011;73143;45.456;11.064;2023-11-21T04:23:44;40.10;;;25.30;;
68744;SDS011;73143;45.456;11.064;2023-11-21T04:26:21;33.10;;;23.20;;
68744;SDS011;73143;45.456;11.064;2023-11-21T04:28:58;36.60;;;22.60;;
68744;SDS011;73143;45.456;11.064;2023-11-21T04:31:35;34.50;;;21.30;;
68744;SDS011;73143;45.456;11.064;2023-11-21T04:34:11;32.50;;;19.50;;
68744;SDS011;73143;45.456;11.064;2023-11-21T04:36:49;27.50;;;19.20;;
68744;SDS011;73143;45.456;11.064;2023-11-21T04:39:26;27.50;;;18.60;;
68744;SDS011;73143;45.456;11.064;2023-11-21T04:42:03;27.10;;;18.00;;
68744;SDS011;73143;45.456;11.064;2023-11-21T04:44:41;23.30;;;16.90;;
68744;SDS011;73143;45.456;11.064;2023-11-21T04:47:19;23.10;;;16.30;;
68744;SDS011;73143;45.456;11.064;2023-11-21T04:49:57;25.20;;;16.30;;
68744;SDS011;73143;45.456;11.064;2023-11-21T04:52:34;26.50;;;16.20;;
68744;SDS011;73143;45.456;11.064;2023-11-21T04:55:12;23.40;;;15.70;;
68744;SDS011;73143;45.456;11.064;2023-11-21T04:57:49;22.90;;;16.20;;
68744;SDS011;73143;45.456;11.064;2023-11-21T05:00:26;25.30;;;15.90;;
68744;SDS011;73143;45.456;11.064;2023-11-21T05:03:03;22.80;;;15.90;;
68744;SDS011;73143;45.456;11.064;2023-11-21T05:05:41;23.00;;;12.90;;
68744;SDS011;73143;45.456;11.064;2023-11-21T05:08:18;24.90;;;16.10;;
68744;SDS011;73143;45.456;11.064;2023-11-21T05:10:55;24.40;;;15.50;;
68744;SDS011;73143;45.456;11.064;2023-11-21T05:13:32;25.40;;;16.00;;
68744;SDS011;73143;45.456;11.064;2023-11-21T05:16:13;23.10;;;15.60;;
68744;SDS011;73143;45.456;11.064;2023-11-21T05:18:50;24.70;;;16.20;;
68744;SDS011;73143;45.456;11.064;2023-11-21T05:21:31;23.70;;;15.50;;
68744;SDS011;73143;45.456;11.064;2023-11-21T05:24:13;22.30;;;15.40;;
68744;SDS011;73143;45.456;11.064;2023-11-21T05:26:51;24.10;;;16.40;;
68744;SDS011;73143;45.456;11.064;2023-11-21T05:29:28;23.50;;;16.10;;
68744;SDS011;73143;45.456;11.064;2023-11-21T05:32:05;27.10;;;17.00;;
68744;SDS011;73143;45.456;11.064;2023-11-21T05:34:43;24.50;;;16.60;;
68744;SDS011;73143;45.456;11.064;2023-11-21T05:37:19;22.30;;;15.30;;
68744;SDS011;73143;45.456;11.064;2023-11-21T05:39:58;23.90;;;15.80;;
68744;SDS011;73143;45.456;11.064;2023-11-21T05:42:38;26.60;;;16.10;;
68744;SDS011;73143;45.456;11.064;2023-11-21T05:45:15;22.60;;;14.70;;
68744;SDS011;73143;45.456;11.064;2023-11-21T05:47:53;22.70;;;15.20;;
68744;SDS011;73143;45.456;11.064;2023-11-21T05:50:30;23.10;;;14.80;;
68744;SDS011;73143;45.456;11.064;2023-11-21T05:53:07;23.40;;;14.50;;
68744;SDS011;73143;45.456;11.064;2023-11-21T05:55:43;24.50;;;16.20;;
68744;SDS011;73143;45.456;11.064;2023-11-21T05:58:21;30.10;;;16.60;;
68744;SDS011;73143;45.456;11.064;2023-11-21T06:00:58;23.00;;;15.30;;
68744;SDS011;73143;45.456;11.064;2023-11-21T06:03:37;24.00;;;15.90;;
68744;SDS011;73143;45.456;11.064;2023-11-21T06:06:14;25.80;;;15.10;;
68744;SDS011;73143;45.456;11.064;2023-11-21T06:08:51;25.60;;;15.60;;
68744;SDS011;73143;45.456;11.064;2023-11-21T06:11:27;22.50;;;14.70;;
68744;SDS011;73143;45.456;11.064;2023-11-21T06:14:05;25.90;;;15.10;;
68744;SDS011;73143;45.456;11.064;2023-11-21T06:16:43;23.60;;;15.10;;
68744;SDS011;73143;45.456;11.064;2023-11-21T06:19:19;22.60;;;14.70;;
68744;SDS011;73143;45.456;11.064;2023-11-21T06:21:56;21.90;;;14.70;;
68744;SDS011;73143;45.456;11.064;2023-11-21T06:24:33;22.10;;;15.60;;
68744;SDS011;73143;45.456;11.064;2023-11-21T06:27:10;22.80;;;15.30;;
68744;SDS011;73143;45.456;11.064;2023-11-21T06:29:48;24.60;;;14.80;;
68744;SDS011;73143;45.456;11.064;2023-11-21T06:32:25;23.80;;;14.60;;
68744;SDS011;73143;45.456;11.064;2023-11-21T06:35:02;22.30;;;14.40;;
68744;SDS011;73143;45.456;11.064;2023-11-21T06:37:43;22.20;;;14.50;;
68744;SDS011;73143;45.456;11.064;2023-11-21T06:40:21;25.20;;;14.80;;
68744;SDS011;73143;45.456;11.064;2023-11-21T06:42:58;23.50;;;14.30;;
68744;SDS011;73143;45.456;11.064;2023-11-21T06:45:36;21.70;;;13.90;;
68744;SDS011;73143;45.456;11.064;2023-11-21T06:48:13;20.10;;;12.90;;
68744;SDS011;73143;45.456;11.064;2023-11-21T06:50:51;22.20;;;14.70;;
68744;SDS011;73143;45.456;11.064;2023-11-21T06:53:27;23.40;;;15.60;;
68744;SDS011;73143;45.456;11.064;2023-11-21T06:56:16;24.20;;;15.50;;
68744;SDS011;73143;45.456;11.064;2023-11-21T06:58:53;24.50;;;15.60;;
68744;SDS011;73143;45.456;11.064;2023-11-21T07:01:31;25.30;;;17.10;;
68744;SDS011;73143;45.456;11.064;2023-11-21T07:04:11;26.80;;;17.60;;
68744;SDS011;73143;45.456;11.064;2023-11-21T07:06:48;29.10;;;18.90;;
68744;SDS011;73143;45.456;11.064;2023-11-21T07:09:25;25.70;;;17.70;;
68744;SDS011;73143;45.456;11.064;2023-11-21T07:12:01;26.00;;;16.40;;
68744;SDS011;73143;45.456;11.064;2023-11-21T07:14:40;23.40;;;15.30;;
68744;SDS011;73143;45.456;11.064;2023-11-21T07:17:17;24.30;;;15.40;;
68744;SDS011;73143;45.456;11.064;2023-11-21T07:19:55;29.10;;;16.30;;
68744;SDS011;73143;45.456;11.064;2023-11-21T07:22:32;25.30;;;17.20;;
68744;SDS011;73143;45.456;11.064;2023-11-21T07:25:10;25.70;;;16.30;;
68744;SDS011;73143;45.456;11.064;2023-11-21T07:27:47;24.90;;;16.40;;
68744;SDS011;73143;45.456;11.064;2023-11-21T07:30:24;25.10;;;16.50;;
68744;SDS011;73143;45.456;11.064;2023-11-21T07:33:01;24.50;;;15.90;;
68744;SDS011;73143;45.456;11.064;2023-11-21T07:35:38;25.30;;;17.10;;
68744;SDS011;73143;45.456;11.064;2023-11-21T07:38:15;26.90;;;17.60;;
68744;SDS011;73143;45.456;11.064;2023-11-21T07:40:53;24.90;;;17.40;;
68744;SDS011;73143;45.456;11.064;2023-11-21T07:43:30;27.10;;;18.00;;
68744;SDS011;73143;45.456;11.064;2023-11-21T07:46:07;28.00;;;19.30;;
68744;SDS011;73143;45.456;11.064;2023-11-21T07:48:44;32.10;;;18.00;;
68744;SDS011;73143;45.456;11.064;2023-11-21T07:51:24;27.20;;;18.10;;
68744;SDS011;73143;45.456;11.064;2023-11-21T07:54:02;29.50;;;17.70;;
68744;SDS011;73143;45.456;11.064;2023-11-21T07:56:40;29.10;;;18.20;;
68744;SDS011;73143;45.456;11.064;2023-11-21T07:59:17;28.20;;;18.10;;
68744;SDS011;73143;45.456;11.064;2023-11-21T08:01:55;25.40;;;16.90;;
68744;SDS011;73143;45.456;11.064;2023-11-21T08:04:31;28.00;;;17.80;;
68744;SDS011;73143;45.456;11.064;2023-11-21T08:07:08;28.60;;;18.10;;
68744;SDS011;73143;45.456;11.064;2023-11-21T08:09:45;26.70;;;17.10;;
68744;SDS011;73143;45.456;11.064;2023-11-21T08:12:23;28.60;;;17.30;;
68744;SDS011;73143;45.456;11.064;2023-11-21T08:14:59;26.30;;;16.30;;
68744;SDS011;73143;45.456;11.064;2023-11-21T08:17:38;33.90;;;17.60;;
68744;SDS011;73143;45.456;11.064;2023-11-21T08:20:17;31.60;;;16.80;;
68744;SDS011;73143;45.456;11.064;2023-11-21T08:22:54;36.50;;;15.70;;
68744;SDS011;73143;45.456;11.064;2023-11-21T08:25:31;28.90;;;16.90;;
68744;SDS011;73143;45.456;11.064;2023-11-21T08:28:08;29.40;;;17.30;;
68744;SDS011;73143;45.456;11.064;2023-11-21T08:30:46;28.80;;;17.90;;
68744;SDS011;73143;45.456;11.064;2023-11-21T08:33:24;27.20;;;17.30;;
68744;SDS011;73143;45.456;11.064;2023-11-21T08:36:06;27.90;;;17.00;;
68744;SDS011;73143;45.456;11.064;2023-11-21T08:38:45;29.30;;;17.50;;
68744;SDS011;73143;45.456;11.064;2023-11-21T08:41:24;27.30;;;17.50;;
68744;SDS011;73143;45.456;11.064;2023-11-21T08:44:00;27.50;;;17.20;;
68744;SDS011;73143;45.456;11.064;2023-11-21T08:46:39;28.60;;;17.30;;
68744;SDS011;73143;45.456;11.064;2023-11-21T08:49:16;22.80;;;16.80;;
68744;SDS011;73143;45.456;11.064;2023-11-21T08:51:53;30.50;;;17.30;;
68744;SDS011;73143;45.456;11.064;2023-11-21T08:54:31;25.90;;;16.90;;
68744;SDS011;73143;45.456;11.064;2023-11-21T08:57:09;27.30;;;17.20;;
68744;SDS011;73143;45.456;11.064;2023-11-21T08:59:47;29.40;;;17.90;;
68744;SDS011;73143;45.456;11.064;2023-11-21T09:02:27;27.20;;;17.10;;
68744;SDS011;73143;45.456;11.064;2023-11-21T09:05:07;24.80;;;16.00;;
68744;SDS011;73143;45.456;11.064;2023-11-21T09:07:44;27.10;;;16.70;;
68744;SDS011;73143;45.456;11.064;2023-11-21T09:10:20;25.00;;;16.60;;
68744;SDS011;73143;45.456;11.064;2023-11-21T09:12:57;25.80;;;16.20;;
68744;SDS011;73143;45.456;11.064;2023-11-21T09:15:33;23.00;;;16.60;;
68744;SDS011;73143;45.456;11.064;2023-11-21T09:18:11;25.70;;;16.70;;
68744;SDS011;73143;45.456;11.064;2023-11-21T09:20:49;24.80;;;16.80;;
68744;SDS011;73143;45.456;11.064;2023-11-21T09:23:26;22.80;;;15.40;;
68744;SDS011;73143;45.456;11.064;2023-11-21T09:26:03;29.10;;;16.80;;
68744;SDS011;73143;45.456;11.064;2023-11-21T09:28:41;24.80;;;15.40;;
68744;SDS011;73143;45.456;11.064;2023-11-21T09:31:21;24.80;;;16.80;;
68744;SDS011;73143;45.456;11.064;2023-11-21T09:33:59;29.00;;;19.40;;
68744;SDS011;73143;45.456;11.064;2023-11-21T09:36:36;26.50;;;18.00;;
68744;SDS011;73143;45.456;11.064;2023-11-21T09:39:15;25.40;;;16.30;;
68744;SDS011;73143;45.456;11.064;2023-11-21T09:41:55;23.70;;;15.10;;
68744;SDS011;73143;45.456;11.064;2023-11-21T09:44:48;21.00;;;15.00;;
68744;SDS011;73143;45.456;11.064;2023-11-21T09:47:35;25.20;;;15.40;;
68744;SDS011;73143;45.456;11.064;2023-11-21T09:50:19;25.00;;;14.30;;
68744;SDS011;73143;45.456;11.064;2023-11-21T09:53:13;22.00;;;13.80;;
68744;SDS011;73143;45.456;11.064;2023-11-21T09:55:53;28.00;;;15.90;;
68744;SDS011;73143;45.456;11.064;2023-11-21T09:58:32;29.70;;;17.10;;
68744;SDS011;73143;45.456;11.064;2023-11-21T10:01:10;31.80;;;19.20;;
68744;SDS011;73143;45.456;11.064;2023-11-21T10:03:50;30.40;;;18.70;;
68744;SDS011;73143;45.456;11.064;2023-11-21T10:06:32;29.10;;;19.60;;
68744;SDS011;73143;45.456;11.064;2023-11-21T10:09:11;29.90;;;17.70;;
68744;SDS011;73143;45.456;11.064;2023-11-21T10:11:49;33.60;;;18.40;;
68744;SDS011;73143;45.456;11.064;2023-11-21T10:14:26;27.00;;;18.30;;
68744;SDS011;73143;45.456;11.064;2023-11-21T10:17:04;26.30;;;17.90;;
68744;SDS011;73143;45.456;11.064;2023-11-21T10:19:44;28.30;;;17.10;;
68744;SDS011;73143;45.456;11.064;2023-11-21T10:22:23;30.80;;;19.30;;
68744;SDS011;73143;45.456;11.064;2023-11-21T10:25:06;28.20;;;17.60;;
68744;SDS011;73143;45.456;11.064;2023-11-21T10:27:49;25.50;;;17.20;;
68744;SDS011;73143;45.456;11.064;2023-11-21T10:30:34;30.60;;;18.50;;
68744;SDS011;73143;45.456;11.064;2023-11-21T10:33:12;25.70;;;17.40;;
68744;SDS011;73143;45.456;11.064;2023-11-21T10:35:50;30.50;;;19.30;;
68744;SDS011;73143;45.456;11.064;2023-11-21T10:38:27;35.60;;;20.60;;
68744;SDS011;73143;45.456;11.064;2023-11-21T10:41:13;33.90;;;20.60;;
68744;SDS011;73143;45.456;11.064;2023-11-21T10:43:55;30.20;;;20.00;;
68744;SDS011;73143;45.456;11.064;2023-11-21T10:46:32;28.70;;;19.30;;
68744;SDS011;73143;45.456;11.064;2023-11-21T10:49:10;32.20;;;20.30;;
68744;SDS011;73143;45.456;11.064;2023-11-21T10:51:49;32.20;;;20.00;;
68744;SDS011;73143;45.456;11.064;2023-11-21T10:54:26;33.70;;;20.50;;
68744;SDS011;73143;45.456;11.064;2023-11-21T10:57:05;29.50;;;20.10;;
68744;SDS011;73143;45.456;11.064;2023-11-21T10:59:47;30.60;;;20.80;;
68744;SDS011;73143;45.456;11.064;2023-11-21T11:02:26;29.90;;;19.80;;
68744;SDS011;73143;45.456;11.064;2023-11-21T11:05:07;30.90;;;19.90;;
68744;SDS011;73143;45.456;11.064;2023-11-21T11:07:45;35.30;;;21.50;;
68744;SDS011;73143;45.456;11.064;2023-11-21T11:10:27;36.40;;;22.40;;
68744;SDS011;73143;45.456;11.064;2023-11-21T11:13:04;30.00;;;19.70;;
68744;SDS011;73143;45.456;11.064;2023-11-21T11:15:49;37.30;;;24.10;;
68744;SDS011;73143;45.456;11.064;2023-11-21T11:18:34;33.40;;;21.40;;
68744;SDS011;73143;45.456;11.064;2023-11-21T11:21:27;35.80;;;21.90;;
68744;SDS011;73143;45.456;11.064;2023-11-21T11:27:25;34.70;;;22.50;;
68744;SDS011;73143;45.456;11.064;2023-11-21T11:30:23;37.80;;;23.80;;
68744;SDS011;73143;45.456;11.064;2023-11-21T11:33:21;31.80;;;20.30;;
68744;SDS011;73143;45.456;11.064;2023-11-21T11:36:13;30.70;;;21.10;;
68744;SDS011;73143;45.456;11.064;2023-11-21T11:38:57;37.20;;;23.30;;
68744;SDS011;73143;45.456;11.064;2023-11-21T11:41:35;38.80;;;23.80;;
68744;SDS011;73143;45.456;11.064;2023-11-21T11:44:51;34.10;;;21.50;;
68744;SDS011;73143;45.456;11.064;2023-11-21T11:47:30;37.30;;;22.60;;
68744;SDS011;73143;45.456;11.064;2023-11-21T11:50:12;35.50;;;21.70;;
68744;SDS011;73143;45.456;11.064;2023-11-21T11:52:52;37.60;;;23.90;;
68744;SDS011;73143;45.456;11.064;2023-11-21T11:55:29;40.40;;;24.60;;
68744;SDS011;73143;45.456;11.064;2023-11-21T11:58:08;39.60;;;24.30;;
68744;SDS011;73143;45.456;11.064;2023-11-21T12:00:45;33.90;;;23.00;;
68744;SDS011;73143;45.456;11.064;2023-11-21T12:03:25;31.30;;;20.00;;
68744;SDS011;73143;45.456;11.064;2023-11-21T12:06:03;38.50;;;22.20;;
68744;SDS011;73143;45.456;11.064;2023-11-21T12:08:43;34.30;;;21.50;;
68744;SDS011;73143;45.456;11.064;2023-11-21T12:11:21;31.60;;;21.20;;
68744;SDS011;73143;45.456;11.064;2023-11-21T12:14:08;29.60;;;20.10;;
68744;SDS011;73143;45.456;11.064;2023-11-21T12:16:46;36.10;;;21.80;;
68744;SDS011;73143;45.456;11.064;2023-11-21T12:19:23;36.40;;;23.70;;
68744;SDS011;73143;45.456;11.064;2023-11-21T12:22:09;37.10;;;21.60;;
68744;SDS011;73143;45.456;11.064;2023-11-21T12:24:46;33.00;;;21.00;;
68744;SDS011;73143;45.456;11.064;2023-11-21T12:27:23;31.90;;;21.90;;
68744;SDS011;73143;45.456;11.064;2023-11-21T12:30:03;32.10;;;22.40;;
68744;SDS011;73143;45.456;11.064;2023-11-21T12:32:47;35.70;;;22.90;;
68744;SDS011;73143;45.456;11.064;2023-11-21T12:35:25;38.50;;;23.30;;
68744;SDS011;73143;45.456;11.064;2023-11-21T12:38:05;37.60;;;23.10;;
68744;SDS011;73143;45.456;11.064;2023-11-21T12:40:43;31.60;;;21.40;;
68744;SDS011;73143;45.456;11.064;2023-11-21T12:43:20;35.60;;;22.50;;
68744;SDS011;73143;45.456;11.064;2023-11-21T12:46:09;37.90;;;23.70;;
68744;SDS011;73143;45.456;11.064;2023-11-21T12:48:49;34.60;;;22.10;;
68744;SDS011;73143;45.456;11.064;2023-11-21T12:51:26;26.00;;;17.80;;
68744;SDS011;73143;45.456;11.064;2023-11-21T12:54:03;25.10;;;17.40;;
68744;SDS011;73143;45.456;11.064;2023-11-21T12:56:44;20.00;;;12.20;;
68744;SDS011;73143;45.456;11.064;2023-11-21T12:59:22;16.40;;;9.90;;
68744;SDS011;73143;45.456;11.064;2023-11-21T13:02:00;20.30;;;9.80;;
68744;SDS011;73143;45.456;11.064;2023-11-21T13:04:40;9.00;;;5.00;;
68744;SDS011;73143;45.456;11.064;2023-11-21T13:07:23;5.50;;;3.30;;
68744;SDS011;73143;45.456;11.064;2023-11-21T13:10:00;3.90;;;2.30;;
68744;SDS011;73143;45.456;11.064;2023-11-21T13:12:45;4.80;;;2.80;;
68744;SDS011;73143;45.456;11.064;2023-11-21T13:15:23;3.90;;;2.40;;
68744;SDS011;73143;45.456;11.064;2023-11-21T13:18:03;4.40;;;3.00;;
68744;SDS011;73143;45.456;11.064;2023-11-21T13:20:43;16.80;;;8.70;;
68744;SDS011;73143;45.456;11.064;2023-11-21T13:23:22;9.60;;;6.20;;
68744;SDS011;73143;45.456;11.064;2023-11-21T13:26:01;5.10;;;3.70;;
68744;SDS011;73143;45.456;11.064;2023-11-21T13:28:38;4.50;;;3.10;;
68744;SDS011;73143;45.456;11.064;2023-11-21T13:31:18;3.10;;;2.00;;
68744;SDS011;73143;45.456;11.064;2023-11-21T13:33:58;4.80;;;1.90;;
68744;SDS011;73143;45.456;11.064;2023-11-21T13:36:40;3.20;;;2.00;;
68744;SDS011;73143;45.456;11.064;2023-11-21T13:39:18;3.20;;;1.90;;
68744;SDS011;73143;45.456;11.064;2023-11-21T13:41:55;4.40;;;2.30;;
68744;SDS011;73143;45.456;11.064;2023-11-21T13:44:31;3.30;;;1.90;;
68744;SDS011;73143;45.456;11.064;2023-11-21T13:47:10;2.70;;;1.80;;
68744;SDS011;73143;45.456;11.064;2023-11-21T13:49:47;4.30;;;2.00;;
68744;SDS011;73143;45.456;11.064;2023-11-21T13:52:24;2.60;;;1.70;;
68744;SDS011;73143;45.456;11.064;2023-11-21T13:55:05;22.10;;;2.70;;
68744;SDS011;73143;45.456;11.064;2023-11-21T13:57:48;3.70;;;1.70;;
68744;SDS011;73143;45.456;11.064;2023-11-21T14:00:27;3.30;;;2.00;;
68744;SDS011;73143;45.456;11.064;2023-11-21T14:03:17;2.40;;;1.60;;
68744;SDS011;73143;45.456;11.064;2023-11-21T14:05:54;5.30;;;1.80;;
68744;SDS011;73143;45.456;11.064;2023-11-21T14:08:32;4.80;;;2.10;;
68744;SDS011;73143;45.456;11.064;2023-11-21T14:11:10;3.20;;;2.20;;
68744;SDS011;73143;45.456;11.064;2023-11-21T14:13:49;3.40;;;2.30;;
68744;SDS011;73143;45.456;11.064;2023-11-21T14:16:25;3.50;;;1.90;;
68744;SDS011;73143;45.456;11.064;2023-11-21T14:19:02;3.30;;;2.20;;
68744;SDS011;73143;45.456;11.064;2023-11-21T14:21:47;3.60;;;1.80;;
68744;SDS011;73143;45.456;11.064;2023-11-21T14:24:25;2.90;;;1.90;;
68744;SDS011;73143;45.456;11.064;2023-11-21T14:27:04;2.50;;;1.60;;
68744;SDS011;73143;45.456;11.064;2023-11-21T14:29:42;2.90;;;1.90;;
68744;SDS011;73143;45.456;11.064;2023-11-21T14:32:19;3.80;;;2.10;;
68744;SDS011;73143;45.456;11.064;2023-11-21T14:34:57;3.30;;;1.90;;
68744;SDS011;73143;45.456;11.064;2023-11-21T14:37:35;4.00;;;1.90;;
68744;SDS011;73143;45.456;11.064;2023-11-21T14:40:16;2.60;;;1.50;;
68744;SDS011;73143;45.456;11.064;2023-11-21T14:42:55;4.60;;;2.30;;
68744;SDS011;73143;45.456;11.064;2023-11-21T14:45:34;3.50;;;1.80;;
68744;SDS011;73143;45.456;11.064;2023-11-21T14:48:11;4.00;;;2.00;;
68744;SDS011;73143;45.456;11.064;2023-11-21T14:50:57;3.10;;;1.90;;
68744;SDS011;73143;45.456;11.064;2023-11-21T14:53:53;3.20;;;1.90;;
68744;SDS011;73143;45.456;11.064;2023-11-21T14:56:38;3.00;;;1.80;;
68744;SDS011;73143;45.456;11.064;2023-11-21T14:59:17;2.60;;;1.70;;
68744;SDS011;73143;45.456;11.064;2023-11-21T15:01:55;2.60;;;1.60;;
68744;SDS011;73143;45.456;11.064;2023-11-21T15:04:46;2.90;;;1.70;;
68744;SDS011;73143;45.456;11.064;2023-11-21T15:07:25;3.70;;;2.00;;
68744;SDS011;73143;45.456;11.064;2023-11-21T15:10:03;3.60;;;2.00;;
68744;SDS011;73143;45.456;11.064;2023-11-21T15:12:47;2.90;;;1.80;;
68744;SDS011;73143;45.456;11.064;2023-11-21T15:15:24;2.30;;;1.50;;
68744;SDS011;73143;45.456;11.064;2023-11-21T15:18:02;5.40;;;2.00;;
68744;SDS011;73143;45.456;11.064;2023-11-21T15:20:41;2.80;;;1.70;;
68744;SDS011;73143;45.456;11.064;2023-11-21T15:23:19;2.60;;;1.80;;